Bookmark and Share
Track history (hours):
 

MSC Vega

Last reported at 2014-Apr-20 18:05 UTC. Time now 2014-Apr-20 23:54 UTC.
Position N 22°57' E 117°02'.

Length 366 m; draft 14.9 m.

Type: Ship (hazmat cat A). MMSI: 636015506.

NotesDate/timePositionNaut miles runAvg speedWind from/ knotsBaromVisibWave heightAir tempDewpointWater temp
2014-Apr-20 18:05N 22°57' E 117°02'713.5
2014-Apr-20 17:33N 22°52' E 116°55'1613.2
2014-Apr-20 16:21N 22°43' E 116°41'14612.4
2014-Apr-20 04:33N 22°18' E 114°06'1 0.1
2014-Apr-19 08:33N 22°19' E 114°05'30 1.2
2014-Apr-18 08:09N 22°39' E 113°41'0 0.0
2014-Apr-18 07:34N 22°39' E 113°41'0 0.0
2014-Apr-18 06:27N 22°39' E 113°41'0 0.1
2014-Apr-18 05:32N 22°39' E 113°41'8 7.8
2014-Apr-18 04:30N 22°31' E 113°44'1314.0
2014-Apr-18 03:33N 22°18' E 113°48'1313.0
2014-Apr-18 02:33N 22°06' E 113°51'1615.6
2014-Apr-18 01:31N 21°49' E 113°51'1212.2
2014-Apr-18 00:31N 21°37' E 113°49'  
2014-Apr-13 22:23N 01°16' E 103°46'0 0.0
2014-Apr-13 20:23N 01°16' E 103°46'0 0.0
2014-Apr-13 19:29N 01°16' E 103°46'0 0.0
2014-Apr-13 18:11N 01°16' E 103°46'0 0.0
2014-Apr-13 17:29N 01°16' E 103°46'0 0.0
2014-Apr-13 16:17N 01°16' E 103°46'0 0.0
2014-Apr-13 15:32N 01°16' E 103°46'0 0.0
2014-Apr-13 14:32N 01°16' E 103°46'0 0.0
2014-Apr-13 13:05N 01°16' E 103°46'0 0.0
2014-Apr-13 12:29N 01°16' E 103°46'0 0.0
2014-Apr-13 11:29N 01°16' E 103°46'0 0.0
2014-Apr-13 10:11N 01°16' E 103°46'0 0.0
2014-Apr-13 09:23N 01°16' E 103°46'0 0.0
2014-Apr-13 08:17N 01°16' E 103°46'0 0.0
2014-Apr-13 07:17N 01°16' E 103°46'0 0.0
2014-Apr-13 06:29N 01°16' E 103°46'0 0.0
2014-Apr-13 04:32N 01°16' E 103°46'0 0.0
2014-Apr-13 03:11N 01°16' E 103°46'0 0.0
2014-Apr-13 01:29N 01°16' E 103°46'0 0.0
2014-Apr-13 00:29N 01°16' E 103°46'0 0.0
2014-Apr-12 22:05N 01°16' E 103°46'0 0.0
2014-Apr-12 21:29N 01°16' E 103°46'0 0.0
2014-Apr-12 20:17N 01°16' E 103°46'0 0.0
2014-Apr-12 19:20N 01°16' E 103°46'0 0.0
2014-Apr-12 17:29N 01°16' E 103°46'0 0.0
2014-Apr-12 16:23N 01°16' E 103°46'0 0.0
2014-Apr-12 15:29N 01°16' E 103°46'0 0.0
2014-Apr-12 14:29N 01°16' E 103°46'0 0.0
2014-Apr-12 13:32N 01°16' E 103°46'0 0.0
2014-Apr-12 12:29N 01°16' E 103°46'0 0.0
2014-Apr-12 11:29N 01°16' E 103°46'0 0.0
2014-Apr-12 10:29N 01°16' E 103°46'0 0.1
2014-Apr-12 09:32N 01°16' E 103°46'1 1.5
2014-Apr-12 08:33N 01°15' E 103°47'0 0.3
2014-Apr-12 07:33N 01°15' E 103°47'5 5.2
2014-Apr-12 06:33N 01°13' E 103°42'5 5.3
2014-Apr-12 05:33N 01°13' E 103°36'9 8.6
2014-Apr-12 04:33N 01°10' E 103°28'8 7.1
2014-Apr-12 03:22N 01°15' E 103°21'  

Dump ship's entire track history

sailing weather and tide predictions

MSC Vega — D5BE4 — position and weather